Terminal Aerodrome Forecast
Issued by NWS Wichita, KS

Home | Current Version | Previous Version | Text Only | Print | Product List | Glossary On
Versions: 1 2 3 4 5 6 7 8 9 10 11 12 13 14 15 16 17
000
FTUS43 KICT 201700
TAFICT
TAF
KICT 201720Z 2018/2118 18015G22KT P6SM SKC
     FM201900 18019G27KT P6SM SCT050
     FM210200 17015KT P6SM FEW250
     FM211500 20016G23KT P6SM FEW250=

USA.gov is the U.S. government's official web portal to all federal, state and local government web resources and services.